This is the latest recevied weather packets stored in our database for station/object SR2GKG-13. If no packets are shown the sender has not sent any weather packets the latest 10 day(s).
| Time | Temp. | Humidity | Pressure | Rain* | Wind** | Luminosity | Snow |
|---|---|---|---|---|---|---|---|
| 1777550020 | 18.33° C | 28% | 1017.2 hPa | - | - | - | - |
| 1777549119 | 15.56° C | 31% | 1017.5 hPa | - | - | - | - |
| 1777548219 | 16.11° C | 31% | 1017.7 hPa | - | - | - | - |
| 1777547319 | 15° C | 32% | 1017.7 hPa | - | - | - | - |
| 1777546419 | 16.67° C | 29% | 1017.8 hPa | - | - | - | - |
| 1777545519 | 16.11° C | 29% | 1017.8 hPa | - | - | - | - |
| 1777544619 | 16.11° C | 29% | 1017.9 hPa | - | - | - | - |
| 1777543719 | 16.11° C | 28% | 1018.2 hPa | - | - | - | - |
| 1777542819 | 15.56° C | 28% | 1018.3 hPa | - | - | - | - |
| 1777541919 | 15.56° C | 27% | 1018.2 hPa | - | - | - | - |
| 1777541019 | 14.44° C | 29% | 1018.3 hPa | - | - | - | - |
| 1777540119 | 13.89° C | 30% | 1018.4 hPa | - | - | - | - |
| 1777539218 | 13.89° C | 29% | 1018.5 hPa | - | - | - | - |
| 1777538318 | 13.89° C | 31% | 1018.7 hPa | - | - | - | - |
| 1777537418 | 13.33° C | 32% | 1019.1 hPa | - | - | - | - |
| 1777536518 | 12.22° C | 33% | 1019.1 hPa | - | - | - | - |
| 1777535618 | 12.22° C | 34% | 1019.2 hPa | - | - | - | - |
| 1777534718 | 10.56° C | 37% | 1019.2 hPa | - | - | - | - |
| 1777533818 | 10° C | 38% | 1019.2 hPa | - | - | - | - |
| 1777532918 | 10° C | 38% | 1019.3 hPa | - | - | - | - |
| 1777532018 | 9.44° C | 39% | 1019.4 hPa | - | - | - | - |
| 1777531118 | 10° C | 38% | 1019.5 hPa | - | - | - | - |
| 1777530217 | 9.44° C | 40% | 1019.3 hPa | - | - | - | - |
| 1777529317 | 7.78° C | 44% | 1019.2 hPa | - | - | - | - |
| 1777528417 | 7.78° C | 45% | 1019.1 hPa | - | - | - | - |
* Rain since midnight (hover to see other rain measurements)
** Current wind speed in m/s (hover to see current wind gust speed)